Ship Status Report: callsign NXXG

sailwx.info

Track history (hours):
 
Tides and Currents Weather Stations Pressure Air Temp Water Temp Dewpoint Dewpoint Depression Visibility Wind Speed Wind Dir Waves Ship Positions

Callsign NXXG (name unknown)

Last reported at 2017-Nov-16 20:47 UTC. Time now 2017-Dec-13 07:22 UTC.
Position N 34°17' W 076°38'.
Warning: this ship's position is 26 days out of date.

AWS

Date/timePositionNaut miles runAvg speedWind from/ knotsBaromVisibWave heightAir tempDewpointWater temp
2017-Nov-16 20:47N 34°17' W 076°38'1 2.6
2017-Nov-16 20:24N 34°16' W 076°38'11 0.8
2017-Nov-16 07:50N 34°20' W 076°49'2 5.2
2017-Nov-16 07:30N 34°20' W 076°47'2 4.8
2017-Nov-16 07:00N 34°19' W 076°45'2 4.4
2017-Nov-16 06:29N 34°19' W 076°42'2 4.7
2017-Nov-16 06:00N 34°17' W 076°40'2 3.5
2017-Nov-16 05:30N 34°15' W 076°39'6 2.8
2017-Nov-16 03:25N 34°10' W 076°36'  
2017-Nov-09 03:04N 34°26' W 076°57'0 2.8
2017-Nov-09 03:00N 34°26' W 076°57'1 2.8
2017-Nov-09 02:29N 34°25' W 076°57'33 0.8
2017-Nov-07 09:03N 34°07' W 076°23'511.4
2017-Nov-07 08:37N 34°07' W 076°29'0 0.2
2017-Nov-07 08:26N 34°07' W 076°29'10 9.1
2017-Nov-07 07:21N 34°11' W 076°40'2 5.5
2017-Nov-07 07:01N 34°11' W 076°42'2 3.9
2017-Nov-07 06:29N 34°12' W 076°44'5 9.4
2017-Nov-07 05:56N 34°11' W 076°51'5 9.8
2017-Nov-07 05:26N 34°14' W 076°55'4 3.9
2017-Nov-07 04:21N 34°15' W 077°01'1 2.2
2017-Nov-07 03:45N 34°15' W 076°59'2 3.7
2017-Nov-07 03:07N 34°16' W 076°56'1 4.4
2017-Nov-07 02:58N 34°16' W 076°56'2 4.4
2017-Nov-07 02:30N 34°17' W 076°54'3 5.5
2017-Nov-07 01:58N 34°20' W 076°52'4 9.2
2017-Nov-07 01:30N 34°20' W 076°57'2 3.0
2017-Nov-07 00:57N 34°20' W 076°55'  
Track history (hours):
 
Tides and Currents Weather Stations Pressure Air Temp Water Temp Dewpoint Dewpoint Depression Visibility Wind Speed Wind Dir Waves Ship Positions

Callsign NXXG (name unknown)

Last reported at 2017-Nov-16 20:47 UTC. Time now 2017-Dec-13 07:22 UTC.
Position N 34°17' W 076°38'.
Warning: this ship's position is 26 days out of date.

AWS

Date/timePositionNaut miles runAvg speedWind from/ knotsBaromVisibWave heightAir tempDewpointWater temp
2017-Nov-16 20:47N 34°17' W 076°38'1 2.6
2017-Nov-16 20:24N 34°16' W 076°38'11 0.8
2017-Nov-16 07:50N 34°20' W 076°49'2 5.2
2017-Nov-16 07:30N 34°20' W 076°47'2 4.8
2017-Nov-16 07:00N 34°19' W 076°45'2 4.4
2017-Nov-16 06:29N 34°19' W 076°42'2 4.7
2017-Nov-16 06:00N 34°17' W 076°40'2 3.5
2017-Nov-16 05:30N 34°15' W 076°39'6 2.8
2017-Nov-16 03:25N 34°10' W 076°36'  
2017-Nov-09 03:04N 34°26' W 076°57'0 2.8
2017-Nov-09 03:00N 34°26' W 076°57'1 2.8
2017-Nov-09 02:29N 34°25' W 076°57'33 0.8
2017-Nov-07 09:03N 34°07' W 076°23'511.4
2017-Nov-07 08:37N 34°07' W 076°29'0 0.2
2017-Nov-07 08:26N 34°07' W 076°29'10 9.1
2017-Nov-07 07:21N 34°11' W 076°40'2 5.5
2017-Nov-07 07:01N 34°11' W 076°42'2 3.9
2017-Nov-07 06:29N 34°12' W 076°44'5 9.4
2017-Nov-07 05:56N 34°11' W 076°51'5 9.8
2017-Nov-07 05:26N 34°14' W 076°55'4 3.9
2017-Nov-07 04:21N 34°15' W 077°01'1 2.2
2017-Nov-07 03:45N 34°15' W 076°59'2 3.7
2017-Nov-07 03:07N 34°16' W 076°56'1 4.4
2017-Nov-07 02:58N 34°16' W 076°56'2 4.4
2017-Nov-07 02:30N 34°17' W 076°54'3 5.5
2017-Nov-07 01:58N 34°20' W 076°52'4 9.2
2017-Nov-07 01:30N 34°20' W 076°57'2 3.0
2017-Nov-07 00:57N 34°20' W 076°55'  

Dump ship's entire track history